Time;durP1;ratioP1;P1;durP2;ratioP2;P2;SDS_P1;SDS_P2;PMS_P1;PMS_P2;Temp;Humidity;BMP_temperature;BMP_pressure;BME280_temperature;BME280_humidity;BME280_pressure;Samples;Min_cycle;Max_cycle;Signal;HPM_P1;HPM_P2
2022/01/26 00:06:08;;;;;;;15.13;7.57;;;;;;;;;;5004936;28;20105;-78
2022/01/26 00:08:34;;;;;;;14.70;7.90;;;;;;;;;;5004259;28;20488;-77
2022/01/26 00:11:00;;;;;;;11.95;6.97;;;;;;;;;;5003439;28;20132;-79
2022/01/26 00:13:27;;;;;;;18.70;8.40;;;;;;;;;;5003390;28;20480;-78
2022/01/26 00:15:59;;;;;;;13.77;7.97;;;;;;;;;;5005684;28;20042;-79
2022/01/26 00:18:31;;;;;;;17.90;7.75;;;;;;;;;;4996849;28;20023;-79
2022/01/26 00:21:05;;;;;;;18.67;8.60;;;;;;;;;;5002441;28;20019;-77
2022/01/26 00:38:53;;;;;;;16.85;8.80;;;;;;;;;;5004637;28;20054;-80
2022/01/26 00:41:31;;;;;;;15.35;8.23;;;;;;;;;;5004392;28;20580;-79
2022/01/26 00:43:58;;;;;;;15.05;8.82;;;;;;;;;;5002424;28;20022;-80
2022/01/26 00:46:25;;;;;;;17.33;9.25;;;;;;;;;;5004183;28;20038;-80
2022/01/26 00:48:51;;;;;;;17.45;8.57;;;;;;;;;;5003131;28;20045;-80
2022/01/26 00:51:20;;;;;;;13.38;7.40;;;;;;;;;;5002992;28;20022;-80
2022/01/26 00:53:58;;;;;;;14.88;7.75;;;;;;;;;;5003975;28;20022;-80
2022/01/26 00:56:24;;;;;;;17.30;8.18;;;;;;;;;;5006214;28;20045;-80
2022/01/26 00:58:50;;;;;;;16.73;7.97;;;;;;;;;;5003482;28;20118;-80
2022/01/26 01:01:16;;;;;;;18.48;9.23;;;;;;;;;;5002853;28;20030;-80
2022/01/26 01:03:45;;;;;;;18.00;8.45;;;;;;;;;;4998450;28;20085;-80
2022/01/26 01:08:40;;;;;;;15.30;8.13;;;;;;;;;;5001291;28;20026;-80
2022/01/26 01:11:06;;;;;;;15.30;8.27;;;;;;;;;;5001817;28;20030;-80
2022/01/26 01:13:35;;;;;;;17.33;9.10;;;;;;;;;;5001923;28;20037;-80
2022/01/26 01:16:03;;;;;;;15.43;8.65;;;;;;;;;;5004000;28;20034;-80
2022/01/26 01:30:58;;;;;;;17.67;9.52;;;;;;;;;;5003231;28;20033;-78
2022/01/26 01:33:31;;;;;;;22.52;10.88;;;;;;;;;;5002083;28;20022;-79
2022/01/26 01:36:00;;;;;;;19.95;10.57;;;;;;;;;;5001311;28;20022;-78
2022/01/26 01:38:29;;;;;;;18.85;10.60;;;;;;;;;;5003799;28;20025;-79
2022/01/26 01:40:55;;;;;;;19.20;11.07;;;;;;;;;;5002083;28;20445;-79
2022/01/26 01:43:23;;;;;;;21.08;10.98;;;;;;;;;;5003195;28;20432;-78
2022/01/26 01:45:51;;;;;;;18.77;10.95;;;;;;;;;;5001000;28;20049;-79
2022/01/26 01:48:23;;;;;;;19.25;10.68;;;;;;;;;;5000908;28;20033;-78
2022/01/26 01:50:51;;;;;;;18.75;10.88;;;;;;;;;;5002005;28;20448;-77
2022/01/26 01:53:18;;;;;;;21.05;10.32;;;;;;;;;;5003442;28;20018;-78
2022/01/26 01:55:47;;;;;;;19.65;11.65;;;;;;;;;;5002623;28;20113;-77
2022/01/26 01:58:13;;;;;;;21.23;10.88;;;;;;;;;;5001286;28;20029;-78
2022/01/26 02:00:40;;;;;;;24.05;11.27;;;;;;;;;;5002277;28;20072;-77
2022/01/26 02:03:06;;;;;;;22.67;11.35;;;;;;;;;;5003449;28;20027;-78
2022/01/26 02:05:32;;;;;;;19.10;11.43;;;;;;;;;;5002141;28;20022;-79
2022/01/26 02:07:59;;;;;;;20.77;11.30;;;;;;;;;;5003533;28;20054;-78
2022/01/26 02:10:28;;;;;;;20.65;10.82;;;;;;;;;;5000634;28;20023;-78
2022/01/26 02:12:56;;;;;;;19.80;12.15;;;;;;;;;;5002484;28;20029;-79
2022/01/26 02:15:28;;;;;;;22.73;11.95;;;;;;;;;;5003304;28;20029;-78
2022/01/26 02:18:30;;;;;;;19.67;10.82;;;;;;;;;;5004475;28;20030;-80
2022/01/26 02:59:49;;;;;;;35.92;16.77;;;;;;;;;;5006178;28;20029;-78
2022/01/26 03:02:37;;;;;;;32.00;18.65;;;;;;;;;;5005664;28;20038;-79
2022/01/26 03:05:07;;;;;;;30.90;15.63;;;;;;;;;;4986912;28;20023;-79
2022/01/26 03:07:43;;;;;;;33.25;18.05;;;;;;;;;;4992674;28;20084;-78
2022/01/26 03:10:22;;;;;;;33.83;17.15;;;;;;;;;;5005573;28;20027;-78
2022/01/26 03:12:57;;;;;;;33.67;15.90;;;;;;;;;;5004772;28;20022;-79
2022/01/26 03:15:31;;;;;;;29.33;15.52;;;;;;;;;;5006347;28;20029;-78
2022/01/26 03:18:18;;;;;;;33.90;17.35;;;;;;;;;;5003590;28;20034;-78
2022/01/26 03:20:46;;;;;;;31.38;15.73;;;;;;;;;;5004672;28;20061;-78
2022/01/26 03:29:39;;;;;;;30.90;15.75;;;;;;;;;;5005033;28;20029;-78
2022/01/26 03:34:09;;;;;;;30.20;15.68;;;;;;;;;;5007769;28;20037;-78
2022/01/26 03:36:46;;;;;;;30.85;17.17;;;;;;;;;;5005309;28;20491;-78
2022/01/26 03:39:15;;;;;;;31.67;18.05;;;;;;;;;;5005982;28;20023;-78
2022/01/26 03:41:50;;;;;;;32.65;16.88;;;;;;;;;;5005443;28;20030;-79
2022/01/26 03:44:17;;;;;;;33.15;17.55;;;;;;;;;;5006271;28;20033;-79
2022/01/26 03:46:45;;;;;;;33.35;16.00;;;;;;;;;;5005415;28;20015;-79
2022/01/26 03:49:11;;;;;;;27.20;15.30;;;;;;;;;;5005628;28;20030;-78
2022/01/26 03:51:38;;;;;;;31.88;16.38;;;;;;;;;;5003537;28;20112;-79
2022/01/26 03:54:05;;;;;;;30.23;15.18;;;;;;;;;;5004715;28;20121;-79
2022/01/26 03:56:31;;;;;;;34.92;16.45;;;;;;;;;;4990532;28;20123;-79
2022/01/26 03:58:57;;;;;;;30.88;17.20;;;;;;;;;;5004207;28;20404;-77
2022/01/26 04:01:24;;;;;;;38.13;18.63;;;;;;;;;;5003151;28;20026;-79
2022/01/26 04:03:50;;;;;;;31.52;16.23;;;;;;;;;;5001291;28;20065;-79
2022/01/26 04:06:17;;;;;;;35.38;18.80;;;;;;;;;;5005530;28;20041;-78
2022/01/26 04:08:44;;;;;;;34.42;17.13;;;;;;;;;;5004015;28;20034;-78
2022/01/26 04:13:41;;;;;;;31.42;17.40;;;;;;;;;;4999610;28;20031;-78
2022/01/26 04:16:08;;;;;;;37.85;18.08;;;;;;;;;;4998874;28;20030;-78
2022/01/26 04:18:37;;;;;;;35.83;17.98;;;;;;;;;;5005544;28;20026;-78
2022/01/26 04:24:00;;;;;;;36.30;17.73;;;;;;;;;;5006035;28;20026;-78
2022/01/26 04:26:33;;;;;;;33.40;16.80;;;;;;;;;;5003603;28;20053;-78
2022/01/26 04:29:05;;;;;;;33.00;16.98;;;;;;;;;;4999936;28;20022;-79
2022/01/26 04:31:31;;;;;;;30.52;16.38;;;;;;;;;;5001638;28;20034;-79
2022/01/26 04:33:57;;;;;;;32.53;17.27;;;;;;;;;;5004919;28;20036;-79
2022/01/26 04:36:31;;;;;;;34.95;17.52;;;;;;;;;;5004918;28;20125;-79
2022/01/26 04:39:01;;;;;;;34.88;16.77;;;;;;;;;;5003992;28;20102;-78
2022/01/26 04:41:40;;;;;;;30.65;15.50;;;;;;;;;;5001137;28;20023;-78
2022/01/26 04:44:13;;;;;;;30.00;16.92;;;;;;;;;;4985095;28;20019;-79
2022/01/26 04:46:40;;;;;;;33.28;16.50;;;;;;;;;;4986882;28;20035;-78
2022/01/26 04:49:06;;;;;;;32.40;18.38;;;;;;;;;;5003768;28;20030;-78
2022/01/26 04:51:32;;;;;;;30.73;16.45;;;;;;;;;;4990089;28;20050;-79
2022/01/26 04:53:59;;;;;;;29.30;14.20;;;;;;;;;;5000374;28;20062;-78
2022/01/26 04:56:25;;;;;;;28.67;15.23;;;;;;;;;;5004450;28;20057;-79
2022/01/26 04:58:51;;;;;;;32.60;16.35;;;;;;;;;;4986793;28;20031;-78
2022/01/26 05:01:18;;;;;;;29.63;15.10;;;;;;;;;;5004347;28;20029;-79
2022/01/26 05:03:44;;;;;;;28.35;14.38;;;;;;;;;;5004493;28;20054;-79
2022/01/26 05:06:12;;;;;;;32.88;14.80;;;;;;;;;;5002333;28;20053;-79
2022/01/26 05:08:39;;;;;;;28.25;13.90;;;;;;;;;;5002969;28;20480;-79
2022/01/26 05:11:08;;;;;;;28.65;15.07;;;;;;;;;;5004186;28;20042;-78
2022/01/26 05:13:37;;;;;;;27.95;14.32;;;;;;;;;;5001894;28;20500;-79
2022/01/26 05:16:05;;;;;;;27.80;14.63;;;;;;;;;;5003183;28;20080;-79
2022/01/26 05:18:32;;;;;;;24.17;13.13;;;;;;;;;;5003819;28;20018;-79
2022/01/26 05:20:58;;;;;;;28.63;13.93;;;;;;;;;;5003691;28;20050;-79
2022/01/26 05:23:25;;;;;;;25.88;13.32;;;;;;;;;;5003055;28;20034;-79
2022/01/26 05:25:51;;;;;;;25.73;14.40;;;;;;;;;;5002453;28;20026;-81
2022/01/26 05:28:17;;;;;;;25.60;14.05;;;;;;;;;;5006745;28;20018;-78
2022/01/26 05:30:44;;;;;;;27.35;15.57;;;;;;;;;;5005722;28;20023;-80
2022/01/26 05:33:10;;;;;;;26.38;14.13;;;;;;;;;;4990536;28;20493;-80
2022/01/26 05:35:36;;;;;;;28.60;14.23;;;;;;;;;;5005300;28;20038;-82
2022/01/26 05:38:04;;;;;;;29.67;16.58;;;;;;;;;;5008104;28;20026;-80
2022/01/26 05:40:30;;;;;;;29.50;14.07;;;;;;;;;;5004945;28;20126;-80
2022/01/26 05:42:58;;;;;;;22.17;13.95;;;;;;;;;;5004050;28;20038;-80
2022/01/26 05:45:32;;;;;;;27.17;14.52;;;;;;;;;;5005005;28;20053;-80
2022/01/26 05:48:02;;;;;;;29.08;14.88;;;;;;;;;;5003702;28;20026;-78
2022/01/26 05:50:28;;;;;;;28.92;14.10;;;;;;;;;;5004058;28;20022;-80
2022/01/26 05:52:54;;;;;;;25.63;13.82;;;;;;;;;;5004302;28;20077;-80
2022/01/26 05:55:20;;;;;;;26.13;14.25;;;;;;;;;;5004270;28;20041;-80
2022/01/26 05:57:46;;;;;;;28.45;16.05;;;;;;;;;;5015704;28;20038;-80
2022/01/26 06:00:13;;;;;;;27.75;15.02;;;;;;;;;;5017704;28;20026;-80
2022/01/26 06:02:40;;;;;;;30.70;14.85;;;;;;;;;;5004810;28;20023;-79
2022/01/26 06:05:06;;;;;;;26.13;13.68;;;;;;;;;;5004596;28;20062;-80
2022/01/26 06:07:32;;;;;;;30.33;15.60;;;;;;;;;;5005081;28;20440;-80
2022/01/26 06:10:02;;;;;;;27.42;14.43;;;;;;;;;;5006056;28;20057;-80
2022/01/26 06:12:33;;;;;;;27.08;13.20;;;;;;;;;;5002583;28;20034;-80
2022/01/26 06:14:59;;;;;;;25.05;14.80;;;;;;;;;;4997270;28;20024;-79
2022/01/26 06:17:25;;;;;;;23.58;12.98;;;;;;;;;;4990437;28;20030;-79
2022/01/26 06:19:51;;;;;;;29.35;15.43;;;;;;;;;;5002926;28;20135;-79
2022/01/26 06:22:17;;;;;;;26.90;13.52;;;;;;;;;;5001869;28;20452;-79
2022/01/26 06:24:43;;;;;;;26.92;13.98;;;;;;;;;;5002098;28;20392;-80
2022/01/26 06:27:09;;;;;;;25.45;15.18;;;;;;;;;;5011240;28;20054;-80
2022/01/26 06:29:36;;;;;;;26.48;14.63;;;;;;;;;;5009333;28;20337;-80
2022/01/26 06:32:02;;;;;;;32.80;15.57;;;;;;;;;;5006895;28;20042;-80
2022/01/26 06:34:28;;;;;;;27.15;15.27;;;;;;;;;;5006937;28;20377;-80
2022/01/26 06:36:54;;;;;;;25.50;13.02;;;;;;;;;;5005103;28;20050;-79
2022/01/26 06:39:20;;;;;;;29.15;15.60;;;;;;;;;;5006910;28;20031;-79
2022/01/26 06:41:51;;;;;;;28.15;15.15;;;;;;;;;;4993883;28;20444;-78
2022/01/26 06:44:24;;;;;;;31.20;14.88;;;;;;;;;;5004028;28;20030;-79
2022/01/26 06:49:40;;;;;;;29.60;15.55;;;;;;;;;;4982041;28;20031;-79
2022/01/26 06:52:06;;;;;;;29.10;15.52;;;;;;;;;;4966738;28;20034;-79
2022/01/26 06:54:32;;;;;;;31.70;17.00;;;;;;;;;;4983432;28;20039;-79
2022/01/26 06:56:58;;;;;;;32.80;16.02;;;;;;;;;;4966625;28;20503;-80
2022/01/26 06:59:24;;;;;;;32.35;16.55;;;;;;;;;;4982997;28;20041;-80
2022/01/26 07:01:51;;;;;;;30.85;17.08;;;;;;;;;;4968830;28;20047;-79
2022/01/26 07:04:18;;;;;;;30.45;16.83;;;;;;;;;;4971557;28;20065;-80
2022/01/26 07:06:44;;;;;;;34.35;15.60;;;;;;;;;;4983699;28;20058;-81
2022/01/26 07:09:13;;;;;;;30.02;14.73;;;;;;;;;;4982635;28;20117;-79
2022/01/26 07:11:39;;;;;;;29.83;16.20;;;;;;;;;;4982718;28;20027;-79
2022/01/26 07:14:09;;;;;;;30.95;17.65;;;;;;;;;;4970350;28;20062;-80
2022/01/26 07:22:04;;;;;;;33.05;16.17;;;;;;;;;;4963799;28;20063;-79
2022/01/26 07:24:30;;;;;;;29.42;15.95;;;;;;;;;;4962967;28;20031;-78
2022/01/26 07:26:56;;;;;;;30.33;16.02;;;;;;;;;;4984370;28;20038;-78
2022/01/26 07:29:23;;;;;;;28.67;14.73;;;;;;;;;;4989669;28;20050;-79
2022/01/26 07:31:50;;;;;;;28.05;14.88;;;;;;;;;;5003236;28;20030;-79
2022/01/26 07:34:19;;;;;;;28.25;14.95;;;;;;;;;;5004350;28;20377;-80
2022/01/26 07:36:48;;;;;;;31.83;16.42;;;;;;;;;;5004853;28;20019;-79
2022/01/26 07:39:17;;;;;;;30.55;15.10;;;;;;;;;;5005483;28;20022;-80
2022/01/26 07:41:44;;;;;;;28.88;14.70;;;;;;;;;;5004203;28;20057;-80
2022/01/26 07:44:10;;;;;;;31.23;16.02;;;;;;;;;;5004862;28;20495;-81
2022/01/26 07:46:36;;;;;;;29.80;15.43;;;;;;;;;;5003807;28;20027;-81
2022/01/26 07:49:03;;;;;;;25.63;13.57;;;;;;;;;;5004439;28;20554;-80
2022/01/26 07:51:29;;;;;;;27.13;14.60;;;;;;;;;;5005534;28;20113;-80
2022/01/26 07:53:55;;;;;;;22.98;13.00;;;;;;;;;;5004796;28;20034;-80
2022/01/26 07:56:21;;;;;;;24.40;12.77;;;;;;;;;;5004728;28;20022;-80
2022/01/26 07:58:48;;;;;;;25.95;15.95;;;;;;;;;;5003028;28;20037;-80
2022/01/26 08:01:14;;;;;;;23.88;12.90;;;;;;;;;;5000352;28;20066;-81
2022/01/26 08:03:40;;;;;;;26.98;14.27;;;;;;;;;;4985219;28;20054;-80
2022/01/26 08:06:10;;;;;;;24.90;13.13;;;;;;;;;;4985176;28;20037;-80
2022/01/26 08:08:37;;;;;;;24.45;13.43;;;;;;;;;;4985940;28;20023;-80
2022/01/26 08:11:03;;;;;;;27.85;14.65;;;;;;;;;;5001852;28;20041;-80
2022/01/26 08:13:29;;;;;;;26.77;14.35;;;;;;;;;;5005086;28;20031;-80
2022/01/26 08:15:57;;;;;;;28.08;15.70;;;;;;;;;;5004846;28;20037;-80
2022/01/26 08:18:24;;;;;;;24.00;12.38;;;;;;;;;;5004995;28;20026;-80
2022/01/26 08:20:50;;;;;;;23.40;13.27;;;;;;;;;;5004436;28;20117;-80
2022/01/26 08:23:19;;;;;;;28.00;13.38;;;;;;;;;;5005329;28;20053;-80
2022/01/26 08:25:45;;;;;;;25.35;13.15;;;;;;;;;;5003434;28;20027;-79
2022/01/26 08:28:21;;;;;;;25.08;12.35;;;;;;;;;;5004313;28;20079;-81
2022/01/26 08:30:48;;;;;;;26.27;13.38;;;;;;;;;;5003928;28;20374;-80
2022/01/26 08:33:14;;;;;;;23.75;11.32;;;;;;;;;;5004434;28;21096;-81
2022/01/26 08:35:41;;;;;;;22.55;11.57;;;;;;;;;;5004113;28;20322;-80
2022/01/26 08:38:07;;;;;;;24.67;11.60;;;;;;;;;;5005368;28;20053;-79
2022/01/26 08:40:33;;;;;;;22.98;10.88;;;;;;;;;;5003921;28;20407;-80
2022/01/26 08:43:00;;;;;;;24.58;12.90;;;;;;;;;;5003114;28;20041;-80
2022/01/26 08:45:26;;;;;;;25.55;12.43;;;;;;;;;;5002449;28;20072;-81
2022/01/26 08:47:53;;;;;;;21.55;11.57;;;;;;;;;;5002948;28;20026;-79
2022/01/26 08:50:19;;;;;;;20.45;11.48;;;;;;;;;;5002191;28;20022;-81
2022/01/26 08:52:45;;;;;;;23.90;11.57;;;;;;;;;;5003012;28;20030;-79
2022/01/26 08:55:11;;;;;;;21.20;11.38;;;;;;;;;;5003370;28;20469;-80
2022/01/26 08:57:38;;;;;;;23.83;12.10;;;;;;;;;;5003403;28;20042;-80
2022/01/26 09:00:08;;;;;;;22.15;12.10;;;;;;;;;;5002413;28;20026;-81
2022/01/26 09:02:35;;;;;;;25.42;11.70;;;;;;;;;;5000768;28;20031;-80
2022/01/26 09:05:04;;;;;;;23.27;13.27;;;;;;;;;;5003858;28;20110;-79
2022/01/26 09:07:30;;;;;;;24.92;14.35;;;;;;;;;;5003292;28;20037;-80
2022/01/26 09:09:59;;;;;;;23.50;12.02;;;;;;;;;;5003656;28;20030;-80
2022/01/26 09:12:26;;;;;;;22.45;10.75;;;;;;;;;;5003343;28;20026;-80
2022/01/26 09:14:53;;;;;;;28.48;14.00;;;;;;;;;;5004505;28;20057;-80
2022/01/26 09:17:20;;;;;;;23.20;10.95;;;;;;;;;;4999550;28;20031;-79
2022/01/26 09:19:47;;;;;;;24.30;11.98;;;;;;;;;;5002370;28;20026;-79
2022/01/26 09:22:15;;;;;;;25.13;12.90;;;;;;;;;;5004669;28;20030;-81
2022/01/26 09:24:42;;;;;;;26.83;12.63;;;;;;;;;;5024681;28;20033;-80
2022/01/26 09:27:09;;;;;;;24.65;11.82;;;;;;;;;;5012187;28;20050;-80
2022/01/26 09:29:36;;;;;;;25.58;11.95;;;;;;;;;;5006803;28;20051;-79
2022/01/26 09:32:07;;;;;;;20.23;10.25;;;;;;;;;;5005920;28;20026;-79
2022/01/26 09:34:35;;;;;;;25.42;12.07;;;;;;;;;;5001015;28;20018;-79
2022/01/26 09:37:02;;;;;;;19.55;10.77;;;;;;;;;;5005116;28;20124;-79
2022/01/26 09:39:28;;;;;;;23.45;12.18;;;;;;;;;;5002745;28;20049;-80
2022/01/26 09:41:55;;;;;;;23.25;12.13;;;;;;;;;;5010264;28;20094;-79
2022/01/26 09:44:22;;;;;;;22.08;12.05;;;;;;;;;;5014215;28;20074;-80
2022/01/26 09:46:51;;;;;;;22.40;11.23;;;;;;;;;;5010302;28;20029;-80
2022/01/26 09:49:21;;;;;;;24.50;11.23;;;;;;;;;;5007299;28;20030;-80
2022/01/26 09:54:24;;;;;;;24.08;12.57;;;;;;;;;;5057386;23;20042;-79
2022/01/26 09:56:52;;;;;;;23.75;11.00;;;;;;;;;;5042861;28;20021;-79
2022/01/26 09:59:19;;;;;;;22.73;11.25;;;;;;;;;;5026003;28;20112;-79
2022/01/26 10:01:50;;;;;;;19.95;11.43;;;;;;;;;;5017630;28;20029;-78
2022/01/26 10:04:28;;;;;;;21.30;11.48;;;;;;;;;;5030774;28;20467;-80
2022/01/26 10:07:08;;;;;;;20.88;11.77;;;;;;;;;;5046812;28;20025;-78
2022/01/26 10:09:48;;;;;;;22.13;11.05;;;;;;;;;;5025800;28;20030;-80
2022/01/26 10:15:35;;;;;;;21.25;10.18;;;;;;;;;;5036011;28;20068;-80
2022/01/26 10:18:03;;;;;;;20.58;11.05;;;;;;;;;;5046659;28;20028;-80
2022/01/26 10:20:38;;;;;;;20.27;10.55;;;;;;;;;;5047034;28;20029;-78
2022/01/26 10:23:08;;;;;;;22.70;11.35;;;;;;;;;;5031349;28;20033;-80
2022/01/26 10:25:35;;;;;;;21.77;11.70;;;;;;;;;;5046070;28;20021;-81
2022/01/26 10:28:01;;;;;;;21.80;10.25;;;;;;;;;;5033137;28;20089;-77
2022/01/26 10:30:27;;;;;;;24.38;11.60;;;;;;;;;;5043380;28;20029;-80
2022/01/26 10:32:53;;;;;;;24.75;11.00;;;;;;;;;;5025246;28;20097;-80
2022/01/26 10:35:20;;;;;;;21.50;11.13;;;;;;;;;;5034511;28;20093;-80
2022/01/26 10:37:50;;;;;;;19.25;11.07;;;;;;;;;;5023034;28;20037;-80
2022/01/26 10:40:20;;;;;;;22.80;11.25;;;;;;;;;;5018955;28;20034;-80
2022/01/26 10:42:56;;;;;;;20.67;10.60;;;;;;;;;;5019277;28;20033;-81
2022/01/26 10:45:38;;;;;;;22.60;11.70;;;;;;;;;;5010519;28;20028;-80
2022/01/26 10:48:15;;;;;;;18.55;10.55;;;;;;;;;;5045378;28;20026;-80
2022/01/26 10:53:11;;;;;;;19.95;10.52;;;;;;;;;;5042104;28;20085;-79
2022/01/26 10:55:39;;;;;;;21.98;11.23;;;;;;;;;;5046805;28;20105;-79
2022/01/26 10:58:07;;;;;;;22.27;11.93;;;;;;;;;;5046713;28;20042;-79
2022/01/26 11:00:35;;;;;;;17.30;9.43;;;;;;;;;;5045774;28;20068;-81
2022/01/26 11:03:01;;;;;;;21.85;10.23;;;;;;;;;;5016797;28;20042;-79
2022/01/26 11:05:27;;;;;;;22.40;10.70;;;;;;;;;;5022486;28;20468;-81
2022/01/26 11:07:56;;;;;;;24.38;11.45;;;;;;;;;;5047410;28;20025;-80
2022/01/26 11:10:30;;;;;;;26.60;12.18;;;;;;;;;;5047378;28;20107;-80
2022/01/26 11:12:56;;;;;;;18.50;8.82;;;;;;;;;;5044604;28;20025;-80
2022/01/26 11:15:23;;;;;;;21.58;10.32;;;;;;;;;;5029644;28;20025;-81
2022/01/26 11:17:51;;;;;;;22.35;10.20;;;;;;;;;;5046884;28;20033;-79
2022/01/26 11:20:31;;;;;;;21.10;10.38;;;;;;;;;;5047184;28;20506;-80
2022/01/26 11:22:58;;;;;;;18.48;9.75;;;;;;;;;;5028871;28;20403;-80
2022/01/26 11:25:26;;;;;;;16.75;9.10;;;;;;;;;;5047326;28;20072;-81
2022/01/26 11:27:53;;;;;;;22.20;11.45;;;;;;;;;;5029771;28;20033;-79
2022/01/26 11:30:19;;;;;;;30.02;12.23;;;;;;;;;;5046980;28;20039;-80
2022/01/26 11:32:55;;;;;;;19.20;10.18;;;;;;;;;;5047624;28;20031;-82
2022/01/26 11:35:23;;;;;;;27.58;11.32;;;;;;;;;;5047360;28;20025;-80
2022/01/26 11:38:04;;;;;;;24.13;9.82;;;;;;;;;;5048083;28;20475;-80
2022/01/26 11:46:23;;;;;;;26.08;13.57;;;;;;;;;;5045777;28;20040;-79
2022/01/26 11:48:59;;;;;;;19.30;9.57;;;;;;;;;;5042307;28;20025;-81
2022/01/26 11:51:25;;;;;;;19.83;10.32;;;;;;;;;;5030163;28;20033;-78
2022/01/26 11:53:51;;;;;;;20.35;10.38;;;;;;;;;;5028844;28;20040;-79
2022/01/26 11:56:21;;;;;;;21.80;10.98;;;;;;;;;;5028375;28;20048;-79
2022/01/26 11:58:50;;;;;;;20.67;10.88;;;;;;;;;;5028414;28;20017;-79
2022/01/26 12:01:22;;;;;;;18.90;9.77;;;;;;;;;;5045692;28;20365;-80
2022/01/26 12:03:57;;;;;;;25.40;11.02;;;;;;;;;;5029663;28;20045;-80
2022/01/26 12:06:28;;;;;;;17.67;10.18;;;;;;;;;;5038837;28;20017;-82
2022/01/26 12:08:55;;;;;;;16.85;8.52;;;;;;;;;;5019547;28;20018;-82
2022/01/26 12:11:23;;;;;;;17.13;9.27;;;;;;;;;;5045113;28;20246;-80
2022/01/26 12:13:57;;;;;;;13.00;8.38;;;;;;;;;;5047084;28;20051;-81
2022/01/26 12:16:26;;;;;;;17.23;8.90;;;;;;;;;;5047704;28;20029;-82
2022/01/26 12:19:09;;;;;;;16.77;8.60;;;;;;;;;;5047095;28;20029;-81
2022/01/26 12:35:57;;;;;;;20.67;9.20;;;;;;;;;;5045301;28;20101;-80
2022/01/26 12:41:27;;;;;;;18.17;8.85;;;;;;;;;;5044379;28;20037;-79
2022/01/26 12:43:56;;;;;;;17.27;8.43;;;;;;;;;;5045065;28;20025;-79
2022/01/26 12:46:23;;;;;;;14.68;7.47;;;;;;;;;;5045824;28;20056;-80
2022/01/26 12:48:54;;;;;;;15.93;7.88;;;;;;;;;;5046550;28;20083;-81
2022/01/26 12:51:33;;;;;;;12.50;7.10;;;;;;;;;;5046659;28;20029;-80
2022/01/26 12:54:00;;;;;;;15.48;7.57;;;;;;;;;;5045773;28;20033;-80
2022/01/26 12:56:30;;;;;;;16.70;7.95;;;;;;;;;;5026720;28;20029;-80
2022/01/26 12:58:59;;;;;;;15.25;7.75;;;;;;;;;;5036768;28;20036;-80
2022/01/26 13:01:25;;;;;;;16.35;7.85;;;;;;;;;;5024481;28;20018;-79
2022/01/26 13:03:58;;;;;;;15.82;7.55;;;;;;;;;;5023674;28;20029;-80
2022/01/26 13:06:25;;;;;;;13.02;6.82;;;;;;;;;;5025183;28;20419;-80
2022/01/26 13:08:58;;;;;;;17.13;7.72;;;;;;;;;;5025730;28;20045;-80
2022/01/26 13:11:30;;;;;;;13.13;7.03;;;;;;;;;;5006050;28;20037;-80
2022/01/26 13:14:25;;;;;;;15.10;7.80;;;;;;;;;;5024543;28;20032;-80
2022/01/26 13:19:42;;;;;;;11.27;6.63;;;;;;;;;;5038384;28;20022;-78
2022/01/26 13:27:30;;;;;;;20.60;10.05;;;;;;;;;;5044445;28;20022;-80
2022/01/26 13:30:09;;;;;;;27.48;9.60;;;;;;;;;;5042639;28;20054;-78
2022/01/26 13:32:59;;;;;;;19.50;10.48;;;;;;;;;;5044516;28;20296;-81
2022/01/26 13:44:09;;;;;;;15.77;7.90;;;;;;;;;;4962682;29;20037;-82
2022/01/26 13:51:49;;;;;;;18.80;9.82;;;;;;;;;;4981876;28;20035;-80
2022/01/26 13:59:19;;;;;;;18.20;8.80;;;;;;;;;;4983238;28;20121;-81
2022/01/26 14:01:48;;;;;;;15.55;8.32;;;;;;;;;;4982378;28;20031;-81
2022/01/26 14:04:15;;;;;;;15.95;7.53;;;;;;;;;;4983212;28;20030;-81
2022/01/26 14:06:42;;;;;;;20.75;9.40;;;;;;;;;;4982684;28;20057;-81
2022/01/26 14:09:08;;;;;;;20.88;9.57;;;;;;;;;;4973591;28;20043;-81
2022/01/26 14:11:34;;;;;;;15.68;8.75;;;;;;;;;;4978175;28;20154;-81
2022/01/26 14:14:01;;;;;;;14.63;7.43;;;;;;;;;;4981781;28;20031;-81
2022/01/26 14:16:32;;;;;;;16.98;8.48;;;;;;;;;;4992760;28;20038;-80
2022/01/26 14:19:08;;;;;;;17.02;8.43;;;;;;;;;;5026397;28;20029;-81
2022/01/26 14:22:32;;;;;;;19.20;8.35;;;;;;;;;;5025945;28;20056;-80
2022/01/26 14:26:54;;;;;;;15.15;10.07;;;;;;;;;;5043330;28;20044;-81
2022/01/26 14:29:38;;;;;;;15.77;8.65;;;;;;;;;;5044012;28;20507;-82
2022/01/26 16:04:24;;;;;;;24.25;11.50;;;;;;;;;;5042659;28;20494;-79
2022/01/26 16:18:49;;;;;;;20.20;11.48;;;;;;;;;;5044705;28;20360;-79
2022/01/26 16:20:47;;;;;;;21.50;10.93;;;;;;;;;;5046222;28;20511;-78
2022/01/26 18:49:43;;;;;;;14.10;8.52;;;;;;;;;;5016687;28;20029;-80
2022/01/26 18:52:10;;;;;;;15.60;9.00;;;;;;;;;;5032328;28;20047;-78
2022/01/26 18:54:37;;;;;;;14.52;8.65;;;;;;;;;;5030693;28;20057;-79
2022/01/26 18:57:04;;;;;;;15.73;8.60;;;;;;;;;;5043295;28;20079;-80
2022/01/26 18:59:31;;;;;;;15.40;8.40;;;;;;;;;;5029547;28;20025;-79
2022/01/26 19:01:57;;;;;;;16.67;8.55;;;;;;;;;;5030392;28;20037;-78
2022/01/26 19:04:37;;;;;;;15.02;8.10;;;;;;;;;;5036337;28;20026;-80
2022/01/26 19:07:03;;;;;;;15.65;8.85;;;;;;;;;;5029559;28;20032;-78
2022/01/26 19:09:34;;;;;;;16.05;8.88;;;;;;;;;;5046608;28;20036;-78
2022/01/26 19:12:01;;;;;;;14.95;9.48;;;;;;;;;;5045647;28;20034;-80
2022/01/26 19:14:33;;;;;;;16.40;9.55;;;;;;;;;;5045677;28;20025;-80
2022/01/26 19:25:02;;;;;;;13.05;8.18;;;;;;;;;;5045286;28;20030;-79
2022/01/26 19:33:26;;;;;;;16.73;9.23;;;;;;;;;;5040041;28;20026;-80
2022/01/26 19:47:01;;;;;;;15.70;9.02;;;;;;;;;;5044618;28;20025;-80
2022/01/26 19:52:32;;;;;;;26.80;13.80;;;;;;;;;;5046266;28;20043;-80
2022/01/26 19:54:58;;;;;;;21.85;12.25;;;;;;;;;;5044374;28;20396;-79
2022/01/26 19:57:25;;;;;;;16.77;9.93;;;;;;;;;;5042902;28;20028;-80
2022/01/26 19:59:51;;;;;;;15.90;9.45;;;;;;;;;;5026739;28;20121;-81
2022/01/26 20:02:17;;;;;;;15.45;9.55;;;;;;;;;;5026876;28;20033;-80
2022/01/26 20:04:46;;;;;;;17.88;9.43;;;;;;;;;;5025977;28;20112;-81
2022/01/26 20:07:18;;;;;;;17.58;9.52;;;;;;;;;;5044978;28;20024;-80
2022/01/26 20:09:53;;;;;;;16.90;9.75;;;;;;;;;;5044532;28;20105;-82
2022/01/26 20:12:40;;;;;;;18.27;9.45;;;;;;;;;;5026550;28;20033;-80
2022/01/26 20:15:08;;;;;;;16.90;10.23;;;;;;;;;;5044114;28;20022;-79
2022/01/26 20:17:35;;;;;;;16.65;9.88;;;;;;;;;;5043944;28;20475;-79
2022/01/26 20:20:01;;;;;;;16.15;9.55;;;;;;;;;;5026974;28;20025;-80
2022/01/26 20:22:29;;;;;;;15.43;8.60;;;;;;;;;;5027671;28;20055;-83
2022/01/26 20:24:57;;;;;;;16.75;9.88;;;;;;;;;;5027249;28;20021;-79
2022/01/26 20:27:26;;;;;;;16.00;9.90;;;;;;;;;;5028085;28;20017;-79
2022/01/26 20:30:01;;;;;;;16.60;9.52;;;;;;;;;;5026258;28;20025;-79
2022/01/26 20:32:28;;;;;;;18.17;9.82;;;;;;;;;;5027508;28;20467;-80
2022/01/26 20:34:55;;;;;;;19.92;9.65;;;;;;;;;;5041840;28;20033;-80
2022/01/26 20:37:22;;;;;;;20.95;10.85;;;;;;;;;;5023609;28;20400;-81
2022/01/26 20:39:48;;;;;;;18.95;10.35;;;;;;;;;;5042707;28;20045;-78
2022/01/26 20:42:17;;;;;;;19.58;10.35;;;;;;;;;;5027259;28;20033;-80
2022/01/26 20:44:44;;;;;;;18.63;11.15;;;;;;;;;;5043535;28;20028;-81
2022/01/26 20:47:10;;;;;;;18.33;10.55;;;;;;;;;;5044212;28;20052;-78
2022/01/26 20:49:36;;;;;;;20.35;10.65;;;;;;;;;;5023392;28;20014;-81
2022/01/26 20:52:03;;;;;;;21.55;11.15;;;;;;;;;;5023483;28;20026;-79
2022/01/26 20:54:29;;;;;;;20.45;10.93;;;;;;;;;;5023561;28;20046;-79
2022/01/26 20:56:58;;;;;;;19.95;10.73;;;;;;;;;;5024202;28;20054;-79
2022/01/26 20:59:25;;;;;;;20.10;10.80;;;;;;;;;;5023891;28;20056;-80
2022/01/26 21:01:51;;;;;;;22.75;10.48;;;;;;;;;;5024680;28;20447;-82
2022/01/26 21:04:17;;;;;;;19.38;10.02;;;;;;;;;;5024984;28;20014;-79
2022/01/26 21:06:44;;;;;;;21.65;11.90;;;;;;;;;;5024268;28;20026;-80
2022/01/26 21:09:14;;;;;;;19.13;10.88;;;;;;;;;;5022672;28;20026;-81
2022/01/26 21:11:42;;;;;;;17.77;11.00;;;;;;;;;;5026130;28;20029;-79
2022/01/26 21:14:08;;;;;;;22.48;11.30;;;;;;;;;;5024008;28;20088;-80
2022/01/26 21:16:34;;;;;;;19.30;10.35;;;;;;;;;;5022781;28;20029;-80
2022/01/26 21:19:01;;;;;;;19.38;10.80;;;;;;;;;;5038776;28;20053;-79
2022/01/26 21:21:28;;;;;;;19.40;11.13;;;;;;;;;;5022413;28;20021;-80
2022/01/26 21:23:55;;;;;;;21.15;11.05;;;;;;;;;;5023041;28;20018;-81
2022/01/26 21:26:21;;;;;;;18.48;11.23;;;;;;;;;;5023681;28;20025;-79
2022/01/26 21:28:48;;;;;;;22.33;10.90;;;;;;;;;;5023226;28;20049;-79
2022/01/26 21:31:15;;;;;;;21.05;12.02;;;;;;;;;;5019892;28;20086;-79
2022/01/26 21:33:43;;;;;;;23.52;12.57;;;;;;;;;;5020754;28;20037;-80
2022/01/26 21:36:12;;;;;;;22.70;11.77;;;;;;;;;;5022207;28;20037;-79
2022/01/26 21:38:40;;;;;;;23.58;11.93;;;;;;;;;;5022652;28;20026;-80
2022/01/26 21:41:07;;;;;;;26.40;12.73;;;;;;;;;;5022105;28;20137;-79
2022/01/26 21:43:34;;;;;;;23.25;12.93;;;;;;;;;;5021067;28;20480;-79
2022/01/26 21:46:00;;;;;;;24.38;12.32;;;;;;;;;;5012149;28;20018;-81